Time;durP1;ratioP1;P1;durP2;ratioP2;P2;SDS_P1;SDS_P2;PMS_P1;PMS_P2;Temp;Humidity;BMP_temperature;BMP_pressure;BME280_temperature;BME280_humidity;BME280_pressure;Samples;Min_cycle;Max_cycle;Signal;HPM_P1;HPM_P2
2023/10/02 00:01:17;;;;;;;23.67;13.63;;;17.10;99.90;;;;;;5064061;28;20048;-68
2023/10/02 00:03:45;;;;;;;28.65;14.85;;;17.10;99.90;;;;;;5057048;28;20452;-68
2023/10/02 00:06:12;;;;;;;27.92;14.68;;;17.10;99.90;;;;;;5062385;28;20483;-68
2023/10/02 00:08:49;;;;;;;29.00;14.25;;;17.10;99.90;;;;;;5061256;28;20041;-68
2023/10/02 00:14:18;;;;;;;26.63;14.77;;;17.10;99.90;;;;;;5061176;28;20052;-68
2023/10/02 00:17:13;;;;;;;30.00;14.60;;;17.10;99.90;;;;;;5062122;28;20050;-68
2023/10/02 00:19:41;;;;;;;28.58;14.20;;;17.10;99.90;;;;;;5056637;28;20033;-68
2023/10/02 00:25:07;;;;;;;26.80;15.18;;;17.10;99.90;;;;;;5077328;28;20052;-68
2023/10/02 00:27:34;;;;;;;27.70;14.57;;;17.10;99.90;;;;;;5067860;28;20048;-68
2023/10/02 00:30:01;;;;;;;24.70;14.27;;;17.10;99.90;;;;;;5069181;28;20047;-68
2023/10/02 00:32:31;;;;;;;26.27;13.95;;;17.10;99.90;;;;;;5069067;28;20037;-68
2023/10/02 00:35:00;;;;;;;26.63;14.98;;;17.20;99.90;;;;;;5070098;28;20507;-68
2023/10/02 00:37:45;;;;;;;29.00;14.55;;;17.20;99.90;;;;;;5065069;28;20070;-68
2023/10/02 00:40:14;;;;;;;28.63;14.82;;;17.20;99.90;;;;;;5057310;28;20036;-68
2023/10/02 00:42:40;;;;;;;26.90;13.93;;;17.20;99.90;;;;;;5064484;28;20399;-68
2023/10/02 00:45:08;;;;;;;25.90;14.45;;;17.10;99.90;;;;;;5063299;28;20589;-68
2023/10/02 00:47:42;;;;;;;23.50;13.57;;;17.20;99.90;;;;;;5075534;28;20043;-68
2023/10/02 00:50:24;;;;;;;27.90;14.45;;;17.20;99.90;;;;;;5061467;28;20060;-68
2023/10/02 00:52:59;;;;;;;23.92;13.77;;;17.20;99.90;;;;;;5058338;28;20387;-68
2023/10/02 00:55:35;;;;;;;24.02;13.52;;;17.20;99.90;;;;;;5059990;28;20268;-68
2023/10/02 00:58:03;;;;;;;25.60;13.13;;;17.20;99.90;;;;;;5068725;28;20245;-68
2023/10/02 01:00:36;;;;;;;24.05;12.93;;;17.20;99.90;;;;;;5064097;28;20032;-68
2023/10/02 01:03:04;;;;;;;29.55;14.35;;;17.20;99.90;;;;;;5070086;28;20399;-68
2023/10/02 01:05:41;;;;;;;25.98;13.40;;;17.20;99.90;;;;;;5073721;28;20043;-68
2023/10/02 01:11:02;;;;;;;23.85;12.80;;;17.20;99.90;;;;;;5050802;28;20041;-68
2023/10/02 01:13:34;;;;;;;22.23;12.50;;;17.10;99.90;;;;;;5063124;28;20509;-68
2023/10/02 01:16:03;;;;;;;23.80;13.35;;;17.10;99.90;;;;;;5054833;28;20052;-68
2023/10/02 01:18:30;;;;;;;23.63;12.68;;;17.10;99.90;;;;;;5061424;28;20044;-68
2023/10/02 01:20:59;;;;;;;25.08;14.10;;;17.20;99.90;;;;;;5060471;28;20048;-68
2023/10/02 01:23:25;;;;;;;24.08;13.50;;;17.20;99.90;;;;;;5069524;28;20036;-68
2023/10/02 01:25:57;;;;;;;23.10;12.73;;;17.10;99.90;;;;;;5066157;28;20048;-68
2023/10/02 01:28:26;;;;;;;26.48;13.32;;;17.20;99.90;;;;;;5065390;28;20040;-68
2023/10/02 01:30:55;;;;;;;23.33;13.13;;;17.20;99.90;;;;;;5067423;28;20045;-68
2023/10/02 01:33:22;;;;;;;26.23;13.25;;;17.20;99.90;;;;;;5060030;28;20051;-68
2023/10/02 01:35:49;;;;;;;30.55;14.13;;;17.20;99.90;;;;;;5048552;28;20052;-68
2023/10/02 01:38:18;;;;;;;22.83;13.02;;;17.20;99.90;;;;;;5057511;28;20528;-68
2023/10/02 01:40:44;;;;;;;24.50;13.95;;;17.20;99.90;;;;;;5073432;28;20040;-68
2023/10/02 01:43:12;;;;;;;24.55;13.20;;;17.20;99.90;;;;;;5068596;28;20119;-68
2023/10/02 01:45:42;;;;;;;22.13;13.25;;;17.20;99.90;;;;;;5068951;28;20462;-68
2023/10/02 01:48:13;;;;;;;22.73;12.73;;;17.20;99.90;;;;;;5057134;28;20047;-68
2023/10/02 01:50:42;;;;;;;23.65;12.93;;;17.20;99.90;;;;;;5071564;28;20052;-68
2023/10/02 01:53:28;;;;;;;23.45;12.77;;;17.20;99.90;;;;;;5063113;28;20480;-68
2023/10/02 01:56:00;;;;;;;24.88;13.63;;;17.20;99.90;;;;;;5071259;28;20113;-68
2023/10/02 01:58:27;;;;;;;25.88;13.07;;;17.20;99.90;;;;;;5061889;28;20047;-68
2023/10/02 02:00:52;;;;;;;27.13;14.00;;;17.20;99.90;;;;;;5067291;28;20037;-68
2023/10/02 02:03:18;;;;;;;25.83;13.30;;;17.20;99.90;;;;;;5070534;28;20044;-68
2023/10/02 02:05:45;;;;;;;25.88;13.57;;;17.20;99.90;;;;;;5064103;28;20037;-68
2023/10/02 02:08:23;;;;;;;26.25;13.52;;;17.20;99.90;;;;;;5063679;28;20098;-68
2023/10/02 02:10:54;;;;;;;26.13;13.05;;;17.20;99.90;;;;;;5067460;28;20275;-68
2023/10/02 02:13:21;;;;;;;24.10;12.95;;;17.20;99.90;;;;;;5073459;28;20040;-68
2023/10/02 02:15:51;;;;;;;28.73;14.07;;;17.20;99.90;;;;;;5067970;28;20116;-68
2023/10/02 02:18:19;;;;;;;23.23;13.18;;;17.20;99.90;;;;;;5063546;28;20048;-68
2023/10/02 02:20:57;;;;;;;25.15;13.25;;;17.20;99.90;;;;;;5061024;28;20040;-68
2023/10/02 02:23:26;;;;;;;24.15;13.23;;;17.10;99.90;;;;;;5063590;28;20072;-68
2023/10/02 02:25:52;;;;;;;24.30;13.23;;;17.10;99.90;;;;;;5069751;28;20113;-68
2023/10/02 02:28:18;;;;;;;27.17;13.52;;;17.20;99.90;;;;;;5067166;28;20122;-68
2023/10/02 02:30:43;;;;;;;26.05;13.25;;;17.20;99.90;;;;;;5067807;28;20452;-68
2023/10/02 02:33:10;;;;;;;24.63;13.50;;;17.10;99.90;;;;;;5066042;28;20123;-68
2023/10/02 02:35:35;;;;;;;25.65;13.57;;;17.20;99.90;;;;;;5069697;28;20068;-68
2023/10/02 02:38:02;;;;;;;23.13;12.20;;;17.20;99.90;;;;;;5066535;28;20072;-68
2023/10/02 02:40:31;;;;;;;22.88;12.55;;;17.20;99.90;;;;;;5066390;28;20055;-68
2023/10/02 02:42:56;;;;;;;23.25;12.90;;;17.10;99.90;;;;;;5059407;28;20044;-68
2023/10/02 02:45:28;;;;;;;23.98;13.45;;;17.10;99.90;;;;;;5069774;28;20047;-68
2023/10/02 02:48:05;;;;;;;28.50;14.13;;;17.10;99.90;;;;;;5074008;28;20068;-68
2023/10/02 02:50:40;;;;;;;23.75;13.15;;;17.10;99.90;;;;;;5061805;28;20054;-68
2023/10/02 02:53:16;;;;;;;26.45;12.68;;;17.00;99.90;;;;;;5057309;28;20407;-68
2023/10/02 02:55:43;;;;;;;26.40;13.55;;;17.00;99.90;;;;;;5061384;28;20094;-68
2023/10/02 02:58:09;;;;;;;23.67;13.27;;;17.00;99.90;;;;;;5057700;28;20045;-68
2023/10/02 03:00:35;;;;;;;30.23;13.90;;;16.90;99.90;;;;;;5057951;28;20033;-68
2023/10/02 03:03:02;;;;;;;27.38;13.02;;;16.90;99.90;;;;;;5059898;28;20166;-68
2023/10/02 03:05:38;;;;;;;28.58;14.25;;;16.90;99.90;;;;;;5070326;28;20033;-68
2023/10/02 03:08:05;;;;;;;25.52;13.55;;;16.90;99.90;;;;;;5070487;28;20115;-68
2023/10/02 03:10:39;;;;;;;29.65;13.38;;;16.90;99.90;;;;;;5060686;28;20505;-68
2023/10/02 03:13:08;;;;;;;24.48;13.02;;;16.80;99.90;;;;;;5051525;28;20044;-68
2023/10/02 03:15:46;;;;;;;25.30;14.00;;;16.80;99.90;;;;;;5059117;28;20505;-68
2023/10/02 03:18:31;;;;;;;27.65;13.10;;;16.80;99.90;;;;;;5062491;28;20048;-67
2023/10/02 03:21:06;;;;;;;25.23;13.15;;;16.80;99.90;;;;;;5062671;28;20040;-68
2023/10/02 03:23:31;;;;;;;24.80;13.20;;;16.80;99.90;;;;;;5065292;28;20461;-68
2023/10/02 03:25:57;;;;;;;23.60;13.40;;;16.80;99.90;;;;;;5062044;28;20036;-68
2023/10/02 03:28:32;;;;;;;27.30;14.20;;;16.70;99.90;;;;;;5059480;28;20039;-68
2023/10/02 03:30:58;;;;;;;27.65;13.90;;;16.70;99.90;;;;;;5066765;28;20376;-68
2023/10/02 03:33:31;;;;;;;27.48;13.75;;;16.60;99.90;;;;;;5063368;28;20043;-68
2023/10/02 03:35:58;;;;;;;27.45;13.18;;;16.60;99.90;;;;;;5058527;28;20395;-68
2023/10/02 03:38:33;;;;;;;27.25;13.75;;;16.60;99.90;;;;;;5060356;28;20044;-68
2023/10/02 03:41:01;;;;;;;24.80;14.52;;;16.60;99.90;;;;;;5053281;28;20120;-68
2023/10/02 03:43:34;;;;;;;29.65;14.30;;;16.60;99.90;;;;;;5068058;28;20044;-68
2023/10/02 03:46:01;;;;;;;23.92;12.93;;;16.60;99.90;;;;;;5067670;28;20044;-68
2023/10/02 03:48:28;;;;;;;29.35;13.98;;;16.50;99.90;;;;;;5056084;28;20047;-68
2023/10/02 03:50:56;;;;;;;26.38;14.05;;;16.50;99.90;;;;;;5064414;28;20037;-68
2023/10/02 03:53:28;;;;;;;25.15;14.20;;;16.50;99.90;;;;;;5066583;28;20453;-68
2023/10/02 03:58:51;;;;;;;26.08;14.35;;;16.40;99.90;;;;;;5053482;28;20041;-68
2023/10/02 04:01:30;;;;;;;26.95;13.77;;;16.50;99.90;;;;;;5061255;28;20109;-69
2023/10/02 04:04:19;;;;;;;27.15;13.77;;;16.50;99.90;;;;;;5062639;28;20048;-68
2023/10/02 04:06:44;;;;;;;25.98;13.30;;;16.40;99.90;;;;;;5054027;28;20403;-68
2023/10/02 04:09:17;;;;;;;26.77;14.38;;;16.40;99.90;;;;;;5051427;28;20045;-68
2023/10/02 04:11:46;;;;;;;26.25;13.80;;;16.40;99.90;;;;;;5063021;28;20510;-68
2023/10/02 04:14:18;;;;;;;26.40;14.25;;;16.40;99.90;;;;;;5059558;28;20044;-68
2023/10/02 04:16:43;;;;;;;25.70;13.35;;;16.50;99.90;;;;;;5056859;28;20387;-67
2023/10/02 04:19:09;;;;;;;25.95;14.20;;;16.40;99.90;;;;;;5067730;28;20516;-68
2023/10/02 04:21:36;;;;;;;28.17;14.00;;;16.40;99.90;;;;;;5065734;28;20043;-68
2023/10/02 04:24:09;;;;;;;28.15;14.07;;;16.40;99.90;;;;;;5057099;28;20488;-68
2023/10/02 04:26:36;;;;;;;26.70;14.27;;;16.40;99.90;;;;;;5065323;28;20513;-68
2023/10/02 04:29:26;;;;;;;27.65;13.88;;;16.40;99.90;;;;;;5060692;28;20547;-68
2023/10/02 04:34:37;;;;;;;25.38;13.77;;;16.40;99.90;;;;;;5062653;28;20040;-68
2023/10/02 04:37:22;;;;;;;26.83;14.43;;;16.40;99.90;;;;;;5070262;28;20080;-68
2023/10/02 04:42:57;;;;;;;25.65;13.93;;;16.40;99.90;;;;;;5066807;28;20404;-68
2023/10/02 04:45:25;;;;;;;29.48;14.10;;;16.40;99.90;;;;;;5064150;28;20048;-68
2023/10/02 04:47:55;;;;;;;25.63;13.68;;;16.40;99.90;;;;;;5064455;28;20450;-69
2023/10/02 04:52:53;;;;;;;26.48;14.13;;;16.40;99.90;;;;;;5055572;28;20119;-68
2023/10/02 04:55:27;;;;;;;28.33;15.00;;;16.40;99.90;;;;;;5071859;28;20075;-69
2023/10/02 04:58:04;;;;;;;30.75;15.00;;;16.30;99.90;;;;;;5063379;28;20086;-68
2023/10/02 05:00:33;;;;;;;29.85;14.30;;;16.20;99.90;;;;;;5051778;28;20072;-68
2023/10/02 05:03:18;;;;;;;29.33;14.55;;;16.30;99.90;;;;;;5068720;28;20040;-68
2023/10/02 05:05:49;;;;;;;26.38;14.00;;;16.30;99.90;;;;;;5056700;28;20510;-67
2023/10/02 05:08:40;;;;;;;24.88;13.60;;;16.30;99.90;;;;;;5061929;28;20040;-68
2023/10/02 05:11:08;;;;;;;25.50;14.43;;;16.30;99.90;;;;;;5058334;28;20066;-68
2023/10/02 05:14:13;;;;;;;26.17;13.57;;;16.20;99.90;;;;;;5061703;28;20051;-68
2023/10/02 05:16:34;;;;;;;27.27;14.38;;;16.20;99.90;;;;;;5057893;28;20400;-68
2023/10/02 05:19:09;;;;;;;24.42;13.80;;;16.20;99.90;;;;;;5066756;28;20207;-68
2023/10/02 05:21:50;;;;;;;27.48;13.52;;;16.20;99.90;;;;;;5057673;28;20506;-68
2023/10/02 05:24:18;;;;;;;26.38;14.90;;;16.10;99.90;;;;;;5068635;28;20513;-68
2023/10/02 05:26:46;;;;;;;26.50;14.10;;;16.20;99.90;;;;;;5073798;28;20185;-68
2023/10/02 05:29:36;;;;;;;27.75;14.57;;;16.10;99.90;;;;;;5064378;28;20039;-68
2023/10/02 05:32:16;;;;;;;24.35;14.00;;;16.10;99.90;;;;;;5067138;28;20501;-68
2023/10/02 05:34:58;;;;;;;26.50;13.70;;;16.10;99.90;;;;;;5066846;28;20407;-68
2023/10/02 05:37:30;;;;;;;27.42;13.95;;;16.00;99.90;;;;;;5064151;28;20410;-68
2023/10/02 05:40:37;;;;;;;;;;;16.00;99.90;;;;;;5072658;28;20523;-68
2023/10/02 05:45:47;;;;;;;25.58;14.00;;;16.00;99.90;;;;;;5071131;28;20613;-68
2023/10/02 05:50:53;;;;;;;30.70;14.63;;;16.00;99.90;;;;;;5064835;28;20041;-68
2023/10/02 05:53:20;;;;;;;27.77;14.20;;;16.00;99.90;;;;;;5071529;28;20036;-68
2023/10/02 05:56:05;;;;;;;27.98;14.18;;;16.00;99.90;;;;;;5057601;28;20483;-68
2023/10/02 05:58:36;;;;;;;26.83;14.50;;;16.00;99.90;;;;;;5065679;28;20401;-68
2023/10/02 06:01:04;;;;;;;32.53;15.10;;;16.00;99.90;;;;;;5069365;28;20079;-68
2023/10/02 06:03:34;;;;;;;33.00;14.23;;;15.90;99.90;;;;;;5063592;28;20101;-68
2023/10/02 06:06:15;;;;;;;23.27;13.18;;;15.90;99.90;;;;;;5058193;28;20372;-68
2023/10/02 06:08:42;;;;;;;26.95;13.43;;;15.90;99.90;;;;;;5060499;28;20037;-68
2023/10/02 06:11:25;;;;;;;30.42;13.40;;;15.90;99.90;;;;;;5064254;28;20612;-68
2023/10/02 06:14:09;;;;;;;28.25;15.38;;;15.90;99.90;;;;;;5052302;28;20397;-68
2023/10/02 06:16:35;;;;;;;23.55;13.15;;;15.90;99.90;;;;;;5065877;28;20368;-68
2023/10/02 06:19:01;;;;;;;28.23;15.40;;;16.00;99.90;;;;;;5050894;28;20058;-68
2023/10/02 06:21:31;;;;;;;30.48;14.90;;;16.00;99.90;;;;;;5068066;28;20074;-69
2023/10/02 06:23:58;;;;;;;29.27;15.45;;;16.00;99.90;;;;;;5061757;28;20040;-69
2023/10/02 06:26:29;;;;;;;28.48;14.00;;;16.00;99.90;;;;;;5071968;28;20501;-69
2023/10/02 06:29:22;;;;;;;26.15;13.80;;;16.00;99.90;;;;;;5068100;28;20086;-69
2023/10/02 06:31:51;;;;;;;24.63;14.02;;;16.00;99.90;;;;;;5056186;28;20590;-69
2023/10/02 06:34:20;;;;;;;24.75;13.95;;;16.10;99.90;;;;;;5065331;28;20041;-69
2023/10/02 06:36:48;;;;;;;24.92;13.75;;;16.10;99.90;;;;;;5062561;28;20037;-69
2023/10/02 06:39:17;;;;;;;27.70;13.75;;;16.10;99.90;;;;;;5071389;28;20115;-69
2023/10/02 06:41:44;;;;;;;25.38;13.80;;;16.10;99.90;;;;;;5063803;28;20045;-68
2023/10/02 06:44:16;;;;;;;27.65;13.50;;;16.20;99.90;;;;;;5061260;28;20500;-69
2023/10/02 06:46:55;;;;;;;27.30;14.00;;;16.20;99.90;;;;;;5070382;28;20032;-69
2023/10/02 06:49:20;;;;;;;26.90;14.23;;;16.20;99.90;;;;;;5059522;28;20056;-69
2023/10/02 06:51:49;;;;;;;28.98;14.40;;;16.20;99.90;;;;;;5060598;28;20391;-69
2023/10/02 06:54:18;;;;;;;24.15;12.98;;;16.30;99.90;;;;;;5068718;28;20058;-69
2023/10/02 06:56:44;;;;;;;28.52;14.32;;;16.20;99.90;;;;;;5061517;28;20052;-68
2023/10/02 06:59:10;;;;;;;25.48;13.82;;;16.40;99.90;;;;;;5064030;28;20129;-69
2023/10/02 07:01:36;;;;;;;25.73;12.77;;;16.40;99.90;;;;;;5063114;28;20059;-68
2023/10/02 07:04:09;;;;;;;27.55;14.90;;;16.40;99.90;;;;;;5063999;28;20048;-68
2023/10/02 07:06:41;;;;;;;28.63;14.00;;;16.50;99.90;;;;;;5069675;28;20492;-69
2023/10/02 07:09:10;;;;;;;;;;;16.60;99.90;;;;;;5063804;28;20036;-69
2023/10/02 07:11:42;;;;;;;25.67;13.35;;;16.60;99.90;;;;;;5062923;28;20429;-69
2023/10/02 07:14:09;;;;;;;27.35;13.90;;;16.60;99.90;;;;;;5072353;28;20050;-69
2023/10/02 07:16:35;;;;;;;26.10;13.95;;;16.70;99.90;;;;;;5066229;28;20533;-69
2023/10/02 07:19:01;;;;;;;26.05;13.88;;;16.70;99.90;;;;;;5070273;28;20171;-69
2023/10/02 07:21:30;;;;;;;29.65;13.63;;;16.70;99.90;;;;;;5065244;28;20127;-68
2023/10/02 07:23:57;;;;;;;30.25;14.18;;;16.80;99.90;;;;;;5063091;28;20063;-68
2023/10/02 07:29:07;;;;;;;29.30;14.15;;;16.80;99.90;;;;;;5066494;28;20048;-68
2023/10/02 07:31:32;;;;;;;30.23;14.43;;;16.80;99.90;;;;;;5062349;28;20043;-68
2023/10/02 07:33:58;;;;;;;29.38;14.25;;;16.80;99.90;;;;;;5066811;28;20052;-68
2023/10/02 07:36:26;;;;;;;26.30;14.27;;;16.80;99.90;;;;;;5069871;28;20479;-68
2023/10/02 07:38:53;;;;;;;29.90;14.43;;;16.90;99.90;;;;;;5062060;28;20446;-68
2023/10/02 07:41:25;;;;;;;24.73;13.45;;;16.90;99.90;;;;;;5066876;28;20471;-68
2023/10/02 07:43:54;;;;;;;25.13;13.40;;;16.90;99.90;;;;;;5068860;28;20086;-68
2023/10/02 07:46:23;;;;;;;29.05;13.95;;;16.90;99.90;;;;;;5067600;28;20071;-68
2023/10/02 07:49:00;;;;;;;28.48;14.55;;;17.00;99.90;;;;;;5069480;28;20507;-68
2023/10/02 07:51:36;;;;;;;27.00;14.50;;;17.00;99.90;;;;;;5061930;28;20040;-68
2023/10/02 07:54:03;;;;;;;27.52;14.10;;;17.00;99.90;;;;;;5065560;28;20048;-68
2023/10/02 07:56:29;;;;;;;31.92;15.27;;;17.10;99.90;;;;;;5067765;28;20040;-68
2023/10/02 07:59:01;;;;;;;27.67;15.27;;;17.10;99.90;;;;;;5056346;28;20048;-68
2023/10/02 08:01:33;;;;;;;;;;;17.10;99.90;;;;;;5067169;28;20369;-68
2023/10/02 08:04:01;;;;;;;27.85;14.60;;;17.10;99.90;;;;;;5061355;28;19921;-68
2023/10/02 08:06:33;;;;;;;27.77;15.30;;;17.10;99.90;;;;;;5055778;28;20391;-68
2023/10/02 08:11:56;;;;;;;26.55;15.00;;;17.30;99.90;;;;;;5063384;28;19992;-68
2023/10/02 08:14:41;;;;;;;30.38;15.43;;;17.30;99.90;;;;;;5069828;28;20520;-68
2023/10/02 08:17:18;;;;;;;29.50;15.35;;;17.30;99.90;;;;;;5062965;28;20032;-68
2023/10/02 08:19:54;;;;;;;31.73;15.52;;;17.30;99.90;;;;;;5062523;28;20032;-68
2023/10/02 08:22:24;;;;;;;30.88;15.15;;;17.40;99.90;;;;;;5061707;28;20058;-68
2023/10/02 08:24:52;;;;;;;42.92;17.52;;;17.40;99.90;;;;;;5064081;28;20479;-68
2023/10/02 08:27:18;;;;;;;33.03;15.85;;;17.50;99.90;;;;;;5064643;28;20043;-68
2023/10/02 08:29:44;;;;;;;34.63;16.23;;;17.50;99.90;;;;;;5070916;28;20122;-68
2023/10/02 08:32:10;;;;;;;29.27;15.68;;;17.60;99.90;;;;;;5064498;28;20068;-68
2023/10/02 08:34:36;;;;;;;32.88;15.68;;;17.60;99.90;;;;;;5070341;28;20040;-68
2023/10/02 08:37:05;;;;;;;32.28;16.40;;;17.80;99.90;;;;;;5067049;28;20047;-68
2023/10/02 08:39:40;;;;;;;28.90;15.63;;;17.80;99.90;;;;;;5069576;28;20495;-68
2023/10/02 08:42:10;;;;;;;30.38;16.48;;;17.80;99.90;;;;;;5070755;28;20499;-68
2023/10/02 08:44:41;;;;;;;32.95;14.90;;;18.00;99.90;;;;;;5062246;28;20402;-68
2023/10/02 08:47:12;;;;;;;30.08;16.08;;;18.10;99.90;;;;;;5072619;28;20040;-68
2023/10/02 08:49:40;;;;;;;29.60;15.43;;;18.10;99.90;;;;;;5067617;28;20033;-68
2023/10/02 08:52:10;;;;;;;30.35;16.52;;;18.20;99.90;;;;;;5072223;28;20130;-68
2023/10/02 08:54:39;;;;;;;32.42;16.25;;;18.20;99.90;;;;;;5065315;28;20040;-68
2023/10/02 08:57:06;;;;;;;39.20;17.10;;;18.30;99.90;;;;;;5070171;28;20037;-68
2023/10/02 08:59:38;;;;;;;36.90;17.98;;;18.40;99.90;;;;;;5068513;28;20101;-69
2023/10/02 09:02:15;;;;;;;29.10;16.52;;;18.40;99.90;;;;;;5068762;28;20043;-68
2023/10/02 09:04:53;;;;;;;33.58;17.17;;;18.50;99.90;;;;;;5070775;28;20116;-68
2023/10/02 09:07:23;;;;;;;35.92;17.10;;;18.60;99.90;;;;;;5071351;28;20044;-68
2023/10/02 09:10:04;;;;;;;35.47;19.55;;;18.60;99.90;;;;;;5061843;28;20044;-68
2023/10/02 09:12:30;;;;;;;36.83;19.60;;;18.60;99.90;;;;;;5073004;28;20051;-68
2023/10/02 09:15:20;;;;;;;38.65;19.95;;;18.70;99.90;;;;;;5073707;28;20040;-68
2023/10/02 09:17:45;;;;;;;35.40;19.17;;;18.70;99.90;;;;;;5069459;28;20056;-68
2023/10/02 09:20:11;;;;;;;35.00;18.42;;;18.70;99.90;;;;;;5074007;28;20087;-68
2023/10/02 09:22:44;;;;;;;41.25;20.35;;;18.80;99.90;;;;;;5065656;28;20136;-68
2023/10/02 09:25:26;;;;;;;38.47;19.88;;;18.80;99.90;;;;;;5065160;28;20102;-68
2023/10/02 09:28:04;;;;;;;33.80;19.02;;;19.00;99.90;;;;;;5063310;28;20032;-68
2023/10/02 09:33:05;;;;;;;43.00;21.17;;;19.10;99.90;;;;;;5067099;28;20053;-68
2023/10/02 09:38:04;;;;;;;38.75;20.42;;;19.20;99.90;;;;;;5063069;28;20098;-69
2023/10/02 09:43:23;;;;;;;39.20;20.58;;;19.40;99.90;;;;;;5070421;28;20491;-68
2023/10/02 09:45:53;;;;;;;39.97;20.77;;;19.40;99.90;;;;;;5067859;28;20491;-68
2023/10/02 09:49:03;;;;;;;39.10;20.33;;;19.40;99.90;;;;;;5059382;28;20060;-68
2023/10/02 09:52:15;;;;;;;39.17;20.20;;;19.40;99.90;;;;;;5054903;28;20080;-69
2023/10/02 09:55:03;;;;;;;37.65;19.85;;;19.40;99.90;;;;;;5063554;28;20060;-68
2023/10/02 09:57:37;;;;;;;38.13;19.30;;;19.40;99.90;;;;;;5070241;28;20094;-68
2023/10/02 10:00:34;;;;;;;38.10;20.13;;;19.50;99.90;;;;;;5070799;28;20115;-69
2023/10/02 10:03:30;;;;;;;38.58;20.90;;;19.50;99.90;;;;;;5072835;28;20392;-69
2023/10/02 10:06:08;;;;;;;37.03;20.25;;;19.50;99.90;;;;;;5071568;28;20475;-69
2023/10/02 10:11:43;;;;;;;35.42;19.77;;;19.40;99.90;;;;;;5069190;28;20127;-68
2023/10/02 10:14:37;;;;;;;34.45;19.15;;;19.50;99.90;;;;;;5056397;28;20049;-68
2023/10/02 10:17:49;;;;;;;37.65;20.13;;;19.60;99.90;;;;;;5059126;28;20123;-68
2023/10/02 10:20:22;;;;;;;34.83;19.13;;;19.70;99.90;;;;;;5062711;28;20044;-68
2023/10/02 10:22:51;;;;;;;41.63;20.27;;;19.80;99.90;;;;;;5061111;28;20495;-68
2023/10/02 10:27:54;;;;;;;37.35;21.58;;;20.00;99.90;;;;;;5067716;28;20036;-68
2023/10/02 10:30:28;;;;;;;40.97;21.13;;;20.00;99.90;;;;;;5059006;28;20121;-68
2023/10/02 10:33:33;;;;;;;40.40;21.10;;;20.30;99.90;;;;;;5059044;28;20076;-68
2023/10/02 10:36:02;;;;;;;43.30;21.42;;;20.40;99.90;;;;;;5068586;28;20037;-68
2023/10/02 10:41:05;;;;;;;41.10;21.95;;;20.50;99.90;;;;;;5062073;28;20044;-69
2023/10/02 10:46:25;;;;;;;37.58;19.90;;;20.40;99.90;;;;;;5072512;28;19923;-67
2023/10/02 10:49:07;;;;;;;37.08;20.33;;;20.40;99.90;;;;;;5064324;28;20025;-67
2023/10/02 10:51:39;;;;;;;41.53;21.05;;;20.50;99.90;;;;;;5070522;28;20039;-67
2023/10/02 10:54:27;;;;;;;37.38;19.40;;;20.60;99.90;;;;;;5071917;28;20113;-67
2023/10/02 10:57:19;;;;;;;37.00;20.08;;;20.70;99.90;;;;;;5067187;28;20037;-67
2023/10/02 10:59:45;;;;;;;37.65;20.17;;;21.00;99.90;;;;;;5053069;28;20071;-67
2023/10/02 11:02:21;;;;;;;34.60;19.50;;;21.30;99.90;;;;;;5064770;28;20049;-67
2023/10/02 11:04:51;;;;;;;32.50;18.23;;;21.40;99.90;;;;;;5054027;28;20384;-68
2023/10/02 11:07:25;;;;;;;35.95;16.92;;;21.60;99.90;;;;;;5072147;28;20485;-68
2023/10/02 11:10:19;;;;;;;34.70;15.25;;;21.70;99.90;;;;;;5064834;28;20040;-68
2023/10/02 11:12:56;;;;;;;27.55;14.68;;;21.80;99.90;;;;;;5072669;28;20064;-68
2023/10/02 11:18:19;;;;;;;28.00;14.52;;;21.60;99.90;;;;;;5072094;28;20048;-68
2023/10/02 11:20:51;;;;;;;28.65;15.13;;;21.60;99.90;;;;;;5068129;28;20037;-68
2023/10/02 11:23:41;;;;;;;25.88;14.23;;;21.60;99.90;;;;;;5067694;28;20084;-69
2023/10/02 11:26:12;;;;;;;31.30;15.48;;;21.50;99.90;;;;;;5065308;28;20048;-68
2023/10/02 11:28:44;;;;;;;;;;;21.50;99.90;;;;;;5063895;28;20127;-68
2023/10/02 11:31:29;;;;;;;29.05;15.27;;;21.50;99.90;;;;;;5070121;28;20147;-68
2023/10/02 11:34:06;;;;;;;29.52;14.85;;;21.50;99.90;;;;;;5070878;28;20115;-68
2023/10/02 11:36:34;;;;;;;26.25;15.02;;;21.40;99.90;;;;;;5070341;28;20040;-68
2023/10/02 11:39:09;;;;;;;30.33;15.45;;;21.50;99.90;;;;;;5057578;28;20120;-68
2023/10/02 11:41:39;;;;;;;23.73;13.02;;;21.50;99.90;;;;;;5066248;28;20044;-68
2023/10/02 11:44:06;;;;;;;26.83;13.68;;;21.50;99.90;;;;;;5070836;28;20072;-68
2023/10/02 11:46:33;;;;;;;25.73;13.98;;;21.50;99.90;;;;;;5063254;28;20043;-68
2023/10/02 11:48:58;;;;;;;25.25;14.38;;;21.60;99.90;;;;;;5057147;28;20029;-68
2023/10/02 11:51:28;;;;;;;29.40;14.38;;;21.60;99.90;;;;;;5066993;28;20044;-68
2023/10/02 11:54:05;;;;;;;31.15;15.23;;;21.70;99.90;;;;;;5064378;28;20093;-68
2023/10/02 11:56:31;;;;;;;27.83;15.43;;;21.80;99.90;;;;;;5068857;28;20044;-68
2023/10/02 11:58:58;;;;;;;24.02;13.35;;;21.90;99.90;;;;;;5071161;28;20487;-68
2023/10/02 12:01:26;;;;;;;24.20;14.23;;;22.00;99.90;;;;;;5061764;28;20101;-68
2023/10/02 12:03:56;;;;;;;22.88;12.45;;;22.10;99.90;;;;;;5056677;28;20490;-68
2023/10/02 12:06:26;;;;;;;25.60;13.43;;;22.10;99.90;;;;;;5067609;28;20094;-68
2023/10/02 12:08:54;;;;;;;21.00;11.68;;;22.30;99.90;;;;;;5060934;28;20036;-68
2023/10/02 12:11:20;;;;;;;23.25;13.00;;;22.40;99.90;;;;;;5070136;28;20046;-68
2023/10/02 12:13:47;;;;;;;26.73;13.90;;;22.30;99.90;;;;;;5067128;28;20401;-68
2023/10/02 12:16:12;;;;;;;25.65;12.95;;;22.40;99.90;;;;;;5069644;28;20052;-68
2023/10/02 12:18:38;;;;;;;24.40;12.85;;;22.40;99.90;;;;;;5055576;28;20033;-68
2023/10/02 12:21:09;;;;;;;22.25;12.18;;;22.50;99.90;;;;;;5071126;28;20529;-68
2023/10/02 12:23:39;;;;;;;24.02;13.23;;;22.50;99.90;;;;;;5059602;28;20112;-68
2023/10/02 12:26:07;;;;;;;25.50;13.90;;;22.60;99.90;;;;;;5057885;28;20040;-68
2023/10/02 12:28:33;;;;;;;26.08;13.75;;;22.60;99.90;;;;;;5061232;28;20032;-68
2023/10/02 12:30:59;;;;;;;25.50;13.50;;;22.60;99.90;;;;;;5054277;28;20573;-68
2023/10/02 12:33:25;;;;;;;25.25;13.75;;;22.60;99.90;;;;;;5052540;28;20044;-68
2023/10/02 12:35:54;;;;;;;26.85;13.13;;;22.60;99.90;;;;;;5063192;28;20124;-68
2023/10/02 12:38:24;;;;;;;26.02;14.13;;;22.60;99.90;;;;;;5050404;28;20036;-68
2023/10/02 12:40:51;;;;;;;28.42;14.93;;;22.60;99.90;;;;;;5065318;28;20048;-68
2023/10/02 12:43:17;;;;;;;25.60;14.30;;;22.70;99.90;;;;;;5061959;28;20044;-68
2023/10/02 12:45:43;;;;;;;27.88;14.25;;;22.70;99.90;;;;;;5044168;28;20079;-68
2023/10/02 12:48:09;;;;;;;23.35;14.07;;;22.80;99.90;;;;;;5061572;28;20068;-68
2023/10/02 12:50:42;;;;;;;24.75;13.57;;;22.90;99.90;;;;;;5062007;28;20028;-68
2023/10/02 12:53:10;;;;;;;24.60;13.05;;;23.00;99.90;;;;;;5065049;28;20399;-68
2023/10/02 12:55:36;;;;;;;23.95;13.18;;;23.00;99.90;;;;;;5066446;28;20049;-68
2023/10/02 12:58:04;;;;;;;24.08;12.85;;;23.00;99.90;;;;;;5059532;28;20040;-68
2023/10/02 13:00:31;;;;;;;24.42;12.35;;;23.00;99.90;;;;;;5060145;28;20126;-68
2023/10/02 13:02:57;;;;;;;26.60;13.10;;;22.90;99.90;;;;;;5058660;28;20045;-68
2023/10/02 13:05:23;;;;;;;23.52;12.52;;;22.90;99.90;;;;;;5055719;28;20384;-68
2023/10/02 13:07:52;;;;;;;23.75;12.77;;;22.90;99.90;;;;;;5066076;28;20119;-69
2023/10/02 13:10:17;;;;;;;21.90;12.05;;;22.90;99.90;;;;;;5059499;28;20537;-68
2023/10/02 13:12:43;;;;;;;21.85;11.95;;;22.80;99.90;;;;;;5065533;28;20040;-68
2023/10/02 13:15:13;;;;;;;25.60;13.77;;;22.80;99.90;;;;;;5060359;28;20560;-68
2023/10/02 13:17:39;;;;;;;25.20;13.40;;;22.80;99.90;;;;;;5062727;28;20549;-68
2023/10/02 13:20:07;;;;;;;21.23;12.48;;;22.70;99.90;;;;;;5065643;28;20079;-68
2023/10/02 13:22:35;;;;;;;24.00;13.43;;;22.70;99.90;;;;;;5061188;28;20037;-68
2023/10/02 13:25:04;;;;;;;22.75;12.50;;;22.70;99.90;;;;;;5063913;28;20049;-68
2023/10/02 13:27:31;;;;;;;19.80;12.27;;;22.70;99.90;;;;;;5067293;28;20029;-68
2023/10/02 13:29:57;;;;;;;23.95;12.90;;;22.60;99.90;;;;;;5068606;28;20042;-68
2023/10/02 13:32:23;;;;;;;24.63;12.75;;;22.50;99.90;;;;;;5065977;28;20045;-68
2023/10/02 13:34:51;;;;;;;20.30;11.57;;;22.50;99.90;;;;;;5059290;28;20040;-68
2023/10/02 13:37:17;;;;;;;22.42;12.20;;;22.40;99.90;;;;;;5066096;28;20048;-68
2023/10/02 13:39:43;;;;;;;22.90;11.95;;;22.40;99.90;;;;;;5065578;28;20090;-69
2023/10/02 13:42:08;;;;;;;19.95;11.38;;;22.40;99.90;;;;;;5061210;28;20128;-68
2023/10/02 13:44:34;;;;;;;21.58;11.77;;;22.40;99.90;;;;;;5062059;28;20041;-68